Time;durP1;ratioP1;P1;durP2;ratioP2;P2;SDS_P1;SDS_P2;PMS_P1;PMS_P2;Temp;Humidity;BMP_temperature;BMP_pressure;BME280_temperature;BME280_humidity;BME280_pressure;Samples;Min_cycle;Max_cycle;Signal;HPM_P1;HPM_P2
2022/05/24 00:00:51;;;;;;;9.70;6.40;;;;;;;10.39;65.73;99181.95;213231;1277;139645;-61
2022/05/24 00:05:54;;;;;;;14.70;6.40;;;;;;;10.34;65.79;99185.08;214720;1277;140925;-62
2022/05/24 00:10:56;;;;;;;8.60;5.80;;;;;;;10.30;66.17;99178.95;213542;1277;141175;-63
2022/05/24 00:16:00;;;;;;;12.30;7.40;;;;;;;10.30;66.31;99175.66;214994;1277;141243;-66
2022/05/24 00:21:05;;;;;;;14.20;6.90;;;;;;;10.32;66.34;99180.80;214031;1277;139355;-64
2022/05/24 00:26:10;;;;;;;6.50;5.80;;;;;;;10.36;66.22;99182.29;215622;1277;139558;-65
2022/05/24 00:31:13;;;;;;;7.50;6.50;;;;;;;10.35;66.14;99181.00;214574;1277;141980;-63
2022/05/24 00:36:17;;;;;;;8.80;6.90;;;;;;;10.32;66.09;99179.20;215281;1277;141518;-63
2022/05/24 00:41:29;;;;;;;7.00;5.80;;;;;;;10.26;66.27;99177.05;215815;1277;140523;-64
2022/05/24 00:46:53;;;;;;;9.60;6.10;;;;;;;10.28;66.36;99177.65;215257;1279;141947;-61
2022/05/24 00:52:14;;;;;;;7.60;5.60;;;;;;;10.22;66.37;99171.64;213096;1277;141140;-62
2022/05/24 00:57:34;;;;;;;7.30;5.10;;;;;;;10.11;66.63;99170.24;213890;1277;141855;-62
2022/05/24 01:02:38;;;;;;;6.90;5.80;;;;;;;9.98;66.85;99168.05;214392;1277;141342;-63
2022/05/24 01:07:40;;;;;;;5.60;4.80;;;;;;;9.89;67.07;99160.29;213912;1277;143121;-62
2022/05/24 01:12:48;;;;;;;10.30;6.80;;;;;;;9.82;67.15;99155.86;213874;1277;141755;-65
2022/05/24 01:17:53;;;;;;;13.60;7.70;;;;;;;9.84;67.26;99148.02;214011;1277;141712;-64
2022/05/24 01:23:38;;;;;;;8.10;6.40;;;;;;;9.88;67.38;99136.73;213259;1277;140718;-62
2022/05/24 01:28:46;;;;;;;6.80;5.60;;;;;;;9.87;67.42;99124.38;213106;1277;142669;-63
2022/05/24 01:39:11;;;;;;;6.50;6.00;;;;;;;9.68;67.78;99113.41;213179;1275;141357;-63
2022/05/24 01:44:22;;;;;;;6.60;5.10;;;;;;;9.62;68.03;99112.78;213361;1277;140574;-64
2022/05/24 01:49:29;;;;;;;7.00;5.90;;;;;;;9.59;68.46;99111.18;213147;1277;139484;-63
2022/05/24 01:54:37;;;;;;;4.80;4.40;;;;;;;9.57;68.78;99105.04;214083;1276;139773;-63
2022/05/24 01:59:43;;;;;;;6.60;5.40;;;;;;;9.57;68.90;99093.86;214348;1276;139045;-64
2022/05/24 02:04:47;;;;;;;7.00;5.90;;;;;;;9.62;69.20;99088.30;214362;1276;139603;-63
2022/05/24 02:09:56;;;;;;;6.80;6.20;;;;;;;9.69;69.39;99083.83;213162;1277;139903;-63
2022/05/24 02:15:08;;;;;;;9.00;7.40;;;;;;;9.72;69.62;99065.09;213361;1275;139805;-62
2022/05/24 02:20:18;;;;;;;5.70;5.00;;;;;;;9.75;69.49;99055.23;214339;1277;140491;-64
2022/05/24 02:25:59;;;;;;;6.70;5.80;;;;;;;9.81;69.90;99054.16;214608;1276;140405;-63
2022/05/24 02:31:07;;;;;;;7.40;6.70;;;;;;;9.85;69.87;99053.95;214998;1276;139804;-62
2022/05/24 02:36:10;;;;;;;7.30;4.80;;;;;;;9.90;69.96;99056.52;213637;1277;235306;-62
2022/05/24 02:46:37;;;;;;;6.50;5.10;;;;;;;9.94;70.11;99035.55;215483;1276;140869;-63
2022/05/24 02:51:39;;;;;;;7.20;5.90;;;;;;;9.99;70.15;99029.77;214461;1276;142043;-63
2022/05/24 02:56:45;;;;;;;5.90;5.30;;;;;;;10.06;70.00;99034.54;214102;1276;140126;-62
2022/05/24 03:01:59;;;;;;;6.20;5.60;;;;;;;10.10;70.31;99033.61;213111;1277;140542;-63
2022/05/24 03:17:44;;;;;;;6.40;5.80;;;;;;;10.27;70.25;99036.94;212929;1276;140668;-61
2022/05/24 03:22:47;;;;;;;7.60;6.80;;;;;;;10.34;70.27;99040.31;213772;1276;140327;-62
2022/05/24 03:27:51;;;;;;;6.00;5.40;;;;;;;10.48;69.93;99036.20;213191;1276;140597;-63
2022/05/24 03:32:54;;;;;;;6.90;5.20;;;;;;;10.63;70.01;99039.77;214411;1276;139471;-64
2022/05/24 03:37:57;;;;;;;11.00;5.60;;;;;;;10.88;69.79;99037.59;213869;1276;140314;-64
2022/05/24 03:43:02;;;;;;;6.30;4.30;;;;;;;11.01;69.35;99032.91;213749;1276;141430;-61
2022/05/24 03:48:06;;;;;;;5.00;4.60;;;;;;;11.16;69.29;99026.83;213545;1276;141598;-61
2022/05/24 03:53:10;;;;;;;4.80;4.40;;;;;;;11.50;68.74;99020.92;212899;1276;140053;-62
2022/05/24 03:58:13;;;;;;;5.20;4.70;;;;;;;11.86;68.25;99025.16;212903;1276;143476;-62
2022/05/24 04:03:16;;;;;;;5.50;4.90;;;;;;;11.97;67.92;99034.95;214591;1276;139679;-65
2022/05/24 04:08:26;;;;;;;6.70;5.90;;;;;;;12.20;67.52;99034.10;212866;1276;140614;-62
2022/05/24 04:13:30;;;;;;;5.10;4.60;;;;;;;12.20;67.09;99038.75;214884;1276;139724;-62
2022/05/24 04:18:33;;;;;;;9.00;5.50;;;;;;;12.12;66.66;99042.95;214476;1276;141241;-62
2022/05/24 04:23:35;;;;;;;5.20;4.70;;;;;;;12.22;66.61;99048.48;215006;1275;141345;-63
2022/05/24 04:28:38;;;;;;;6.80;4.90;;;;;;;12.35;66.31;99051.56;215768;1276;139797;-65
2022/05/24 04:33:44;;;;;;;5.10;4.60;;;;;;;13.16;65.33;99048.65;215801;1276;141265;-63
2022/05/24 04:38:49;;;;;;;5.90;4.10;;;;;;;14.46;63.63;99041.57;214474;1276;141482;-62
2022/05/24 04:43:51;;;;;;;4.40;4.00;;;;;;;14.72;62.08;99044.63;215892;1276;140824;-63
2022/05/24 04:48:54;;;;;;;5.20;4.80;;;;;;;14.78;61.83;99043.14;215921;1274;140928;-64
2022/05/24 04:53:56;;;;;;;6.80;4.30;;;;;;;14.48;61.39;99041.07;215703;1276;139921;-64
2022/05/24 04:58:59;;;;;;;4.30;3.80;;;;;;;13.99;61.89;99039.77;213999;1276;141938;-63
2022/05/24 05:04:02;;;;;;;4.40;3.80;;;;;;;13.78;61.83;99032.52;214074;1276;140010;-65
2022/05/24 05:09:06;;;;;;;4.30;3.70;;;;;;;14.15;61.93;99022.92;214772;1276;139837;-63
2022/05/24 05:14:10;;;;;;;6.50;4.80;;;;;;;14.61;61.06;99018.11;213077;1274;141300;-63
2022/05/24 05:19:14;;;;;;;4.30;3.60;;;;;;;16.30;59.36;99022.89;215105;1275;139536;-62
2022/05/24 05:24:17;;;;;;;4.30;3.90;;;;;;;17.96;56.84;99028.33;213597;1276;140177;-62
2022/05/24 05:31:16;;;;;;;4.40;4.10;;;;;;;17.64;56.37;99033.48;213233;1276;140751;-60
2022/05/24 05:34:57;;;;;;;5.60;5.20;;;;;;;18.61;54.88;99022.60;213170;1276;141569;-63
2022/05/24 05:40:03;;;;;;;3.90;3.60;;;;;;;21.28;51.85;99027.92;212877;1276;140588;-63
2022/05/24 05:45:10;;;;;;;4.00;3.60;;;;;;;21.58;48.35;99030.63;213622;1274;141845;-62
2022/05/24 05:50:14;;;;;;;5.00;3.70;;;;;;;19.95;49.10;99029.23;213213;1274;141565;-61
2022/05/24 05:55:19;;;;;;;6.00;3.90;;;;;;;18.39;50.63;99035.41;214746;1276;139577;-62
2022/05/24 06:00:21;;;;;;;4.00;3.60;;;;;;;17.39;52.36;99039.55;214568;1274;140401;-61
2022/05/24 06:05:24;;;;;;;3.50;3.00;;;;;;;16.92;53.52;99035.06;213880;1275;141106;-61
2022/05/24 06:10:29;;;;;;;3.50;3.20;;;;;;;16.35;54.04;99040.58;212885;1276;140785;-61
2022/05/24 06:15:33;;;;;;;3.30;3.00;;;;;;;15.89;55.02;99039.75;215854;1276;140270;-62
2022/05/24 06:20:37;;;;;;;5.00;3.70;;;;;;;15.56;55.79;99041.85;215498;1276;140065;-62
2022/05/24 06:25:43;;;;;;;4.10;3.80;;;;;;;15.32;56.46;99031.45;214270;1276;140688;-65
2022/05/24 06:30:48;;;;;;;4.20;3.80;;;;;;;15.16;56.99;99020.15;215950;1276;139624;-63
2022/05/24 06:35:52;;;;;;;3.00;2.80;;;;;;;15.15;57.57;99014.42;214097;1275;139606;-62
2022/05/24 06:40:55;;;;;;;5.60;3.50;;;;;;;15.29;57.83;99011.83;213380;1276;139828;-62
2022/05/24 06:45:58;;;;;;;3.80;3.10;;;;;;;15.70;58.20;99015.50;214401;1274;139709;-62
2022/05/24 06:51:06;;;;;;;3.60;3.30;;;;;;;16.03;57.10;99017.70;213835;1276;140334;-62
2022/05/24 06:56:09;;;;;;;3.40;3.20;;;;;;;15.93;56.78;99017.56;213190;1276;140151;-63
2022/05/24 07:06:36;;;;;;;3.30;3.00;;;;;;;15.78;57.06;99010.70;214459;1274;139347;-63
2022/05/24 07:11:40;;;;;;;3.20;2.70;;;;;;;15.65;57.43;99011.42;214258;1277;139694;-65
2022/05/24 07:16:43;;;;;;;2.60;2.40;;;;;;;15.69;57.75;99010.84;213909;1276;139759;-62
2022/05/24 07:21:46;;;;;;;3.60;3.30;;;;;;;15.81;57.65;99008.57;214082;1275;139845;-64
2022/05/24 07:26:48;;;;;;;3.00;2.70;;;;;;;15.96;57.76;99013.21;214030;1276;140094;-65
2022/05/24 07:31:56;;;;;;;5.00;3.30;;;;;;;16.02;57.53;99018.73;212873;1276;140148;-63
2022/05/24 07:37:00;;;;;;;2.80;2.60;;;;;;;16.09;57.55;99019.57;213431;1276;142612;-64
2022/05/24 07:47:26;;;;;;;3.90;3.60;;;;;;;16.28;57.11;99025.34;213118;1275;140857;-65
2022/05/24 07:52:31;;;;;;;2.80;2.60;;;;;;;16.34;57.02;99025.37;213910;1274;140009;-65
2022/05/24 07:57:34;;;;;;;3.30;2.90;;;;;;;16.50;57.10;99028.55;214573;1276;139844;-64
2022/05/24 08:02:40;;;;;;;8.50;3.30;;;;;;;16.84;56.97;99036.79;212946;1276;141067;-63
2022/05/24 08:07:45;;;;;;;3.40;3.10;;;;;;;17.28;56.34;99038.08;214516;1276;142774;-63
2022/05/24 08:12:48;;;;;;;2.70;2.50;;;;;;;17.54;55.85;99037.47;214769;1276;140921;-61
2022/05/24 08:17:52;;;;;;;2.50;2.40;;;;;;;17.67;55.35;99036.98;215082;1276;143280;-62
2022/05/24 08:22:54;;;;;;;2.60;2.40;;;;;;;17.75;54.98;99031.36;215872;1275;140790;-62
2022/05/24 08:28:01;;;;;;;3.20;3.00;;;;;;;17.77;54.75;99029.71;214974;1274;141391;-63
2022/05/24 08:33:11;;;;;;;4.00;2.50;;;;;;;17.77;54.76;99030.25;215840;1276;139854;-65
2022/05/24 08:38:14;;;;;;;3.30;3.10;;;;;;;17.79;54.43;99027.67;214597;1276;141345;-65
2022/05/24 08:43:35;;;;;;;3.30;2.60;;;;;;;17.76;54.19;99025.42;214897;1277;141894;-64
2022/05/24 08:48:53;;;;;;;3.20;3.00;;;;;;;17.92;54.21;99024.16;213613;1277;140078;-63
2022/05/24 08:54:08;;;;;;;6.30;3.10;;;;;;;18.18;54.00;99018.60;213215;1274;159696;-64
2022/05/24 08:59:16;;;;;;;5.20;2.20;;;;;;;18.69;53.65;99014.95;215121;1275;139699;-65
2022/05/24 09:04:20;;;;;;;3.20;2.70;;;;;;;18.93;53.05;99015.06;214785;1276;139784;-63
2022/05/24 09:09:33;;;;;;;2.90;2.50;;;;;;;18.89;53.13;99016.02;214503;1276;139772;-63
2022/05/24 09:15:13;;;;;;;2.80;2.50;;;;;;;18.69;52.55;99019.56;213005;1277;141682;-64
2022/05/24 09:20:26;;;;;;;2.60;2.40;;;;;;;18.45;52.87;99020.55;214117;1276;140507;-64
2022/05/24 09:25:30;;;;;;;3.20;2.90;;;;;;;18.32;53.11;99022.25;213398;1276;140361;-67
2022/05/24 09:30:42;;;;;;;3.30;3.00;;;;;;;18.11;53.27;99017.60;214196;1277;139486;-65
2022/05/24 09:35:45;;;;;;;3.20;2.60;;;;;;;17.82;53.90;99017.88;213471;1276;141147;-65
2022/05/24 09:40:58;;;;;;;2.30;2.20;;;;;;;17.69;55.45;99043.95;212824;1276;141449;-65
2022/05/24 09:46:09;;;;;;;5.50;3.80;;;;;;;17.66;56.44;99050.42;214480;1276;141422;-65
2022/05/24 09:51:12;;;;;;;4.90;3.30;;;;;;;17.76;57.21;99051.35;214015;1276;140216;-63
2022/05/24 09:56:33;;;;;;;6.20;3.30;;;;;;;17.89;57.54;99042.82;213923;1276;140612;-64
2022/05/24 10:01:40;;;;;;;3.20;2.70;;;;;;;17.88;57.63;99036.48;213323;1276;140507;-65
2022/05/24 10:06:54;;;;;;;2.50;2.20;;;;;;;17.70;57.81;99042.31;215489;1276;139810;-62
2022/05/24 10:12:05;;;;;;;4.20;3.20;;;;;;;17.72;58.34;99044.22;215285;1276;141186;-64
2022/05/24 10:17:36;;;;;;;3.30;3.10;;;;;;;18.07;59.11;99039.22;215542;1276;139880;-62
2022/05/24 10:23:02;;;;;;;2.70;2.50;;;;;;;18.69;58.67;99040.45;216031;1276;140879;-63
2022/05/24 10:28:18;;;;;;;3.30;2.80;;;;;;;18.83;58.04;99043.38;215901;1276;140893;-64
2022/05/24 10:39:11;;;;;;;4.60;3.60;;;;;;;18.72;57.49;99030.32;214503;1276;140127;-65
2022/05/24 10:44:23;;;;;;;2.90;2.70;;;;;;;19.15;57.69;99035.10;214577;1275;140974;-64
2022/05/24 10:49:39;;;;;;;4.00;3.60;;;;;;;19.74;57.02;99031.53;213066;1276;140700;-65
2022/05/24 10:54:52;;;;;;;4.50;3.50;;;;;;;20.26;56.25;99032.34;214184;1277;140903;-65
2022/05/24 11:00:12;;;;;;;4.20;3.80;;;;;;;20.46;55.28;99024.73;213435;1275;141167;-63
2022/05/24 11:05:30;;;;;;;3.40;3.10;;;;;;;20.08;54.26;99025.34;213590;1274;139839;-63
2022/05/24 11:10:39;;;;;;;3.30;2.90;;;;;;;19.60;54.47;99025.27;213253;1274;690630;-63
2022/05/24 11:15:52;;;;;;;6.00;3.60;;;;;;;19.28;54.76;99026.60;214121;1274;142817;-64
2022/05/24 11:21:32;;;;;;;4.00;3.60;;;;;;;19.08;55.25;99031.75;213270;1277;232776;-63
2022/05/24 11:26:39;;;;;;;4.60;4.20;;;;;;;18.91;55.54;99037.15;213684;1276;141240;-64
2022/05/24 11:31:50;;;;;;;5.60;3.20;;;;;;;18.71;55.58;99039.05;213787;1276;141948;-62
2022/05/24 11:37:19;;;;;;;3.80;3.50;;;;;;;18.61;56.08;99037.62;213506;1274;141595;-63
2022/05/24 11:42:32;;;;;;;3.90;2.90;;;;;;;18.65;56.31;99035.04;214200;1276;139965;-63
2022/05/24 11:47:39;;;;;;;4.20;3.30;;;;;;;18.68;56.70;99027.84;213676;1277;139657;-63
2022/05/24 11:53:03;;;;;;;3.90;3.00;;;;;;;18.73;56.56;99024.48;214526;1276;140440;-65
2022/05/24 11:58:23;;;;;;;4.10;3.70;;;;;;;18.85;56.82;99025.98;213075;1276;141593;-63
2022/05/24 12:09:13;;;;;;;5.00;3.90;;;;;;;19.03;56.74;99028.30;213723;1277;141397;-63
2022/05/24 12:14:16;;;;;;;8.10;3.70;;;;;;;18.89;56.94;99027.68;214844;1276;140070;-64
2022/05/24 12:19:42;;;;;;;4.60;3.60;;;;;;;18.84;57.08;99032.27;214605;1275;141095;-63
2022/05/24 12:24:53;;;;;;;4.20;3.70;;;;;;;18.82;57.25;99030.48;215746;1276;140647;-66
2022/05/24 12:30:15;;;;;;;6.80;3.90;;;;;;;18.84;57.40;99035.04;215812;1274;139773;-66
2022/05/24 12:35:20;;;;;;;4.10;3.60;;;;;;;18.83;57.25;99033.98;215688;1276;140741;-64
2022/05/24 12:40:30;;;;;;;4.30;3.70;;;;;;;18.86;57.22;99029.44;214243;1274;140770;-61
2022/05/24 12:45:38;;;;;;;4.10;3.80;;;;;;;18.91;57.32;99022.36;213892;1274;139767;-64
2022/05/24 12:50:45;;;;;;;4.30;4.00;;;;;;;18.87;57.43;99026.65;215387;1276;139801;-65
2022/05/24 12:55:57;;;;;;;4.20;3.90;;;;;;;18.78;57.63;99018.38;214456;1274;140018;-64
2022/05/24 13:01:13;;;;;;;4.40;4.10;;;;;;;18.66;57.67;99010.94;214052;1277;139374;-64
2022/05/24 13:06:31;;;;;;;5.10;4.60;;;;;;;18.59;58.09;99010.77;213901;1274;233358;-64
2022/05/24 13:11:35;;;;;;;4.20;3.80;;;;;;;18.71;58.22;99017.23;213086;1277;139579;-65
2022/05/24 13:16:39;;;;;;;4.40;4.00;;;;;;;18.90;58.40;99015.39;214074;1274;139576;-65
2022/05/24 13:21:42;;;;;;;4.90;4.60;;;;;;;19.06;58.17;99007.42;213651;1274;139330;-65
2022/05/24 13:27:01;;;;;;;4.80;4.40;;;;;;;19.14;58.23;99010.30;213716;1275;139824;-63
2022/05/24 13:37:52;;;;;;;4.30;3.90;;;;;;;19.35;57.94;99015.13;214225;1274;140071;-63
2022/05/24 13:42:57;;;;;;;6.70;4.50;;;;;;;19.27;57.60;99012.21;214159;1276;140481;-63
2022/05/24 13:48:25;;;;;;;5.10;4.60;;;;;;;19.14;57.83;99013.77;213319;1274;143409;-66
2022/05/24 13:53:39;;;;;;;6.00;4.30;;;;;;;18.99;57.99;99016.30;213900;1276;141897;-63
2022/05/24 13:58:49;;;;;;;6.10;4.20;;;;;;;18.93;58.29;99022.30;214208;1275;139846;-66
2022/05/24 14:04:01;;;;;;;5.00;4.60;;;;;;;18.79;58.00;99023.30;215269;1275;139473;-63
2022/05/24 14:09:04;;;;;;;11.30;4.50;;;;;;;18.67;58.32;99022.64;214360;1277;140548;-64
2022/05/24 14:14:07;;;;;;;4.70;4.40;;;;;;;18.61;58.39;99020.84;214062;1277;140322;-64
2022/05/24 14:19:12;;;;;;;5.90;4.60;;;;;;;18.64;58.74;99020.64;214682;1277;140459;-65
2022/05/24 14:24:18;;;;;;;5.20;4.80;;;;;;;18.73;58.88;99025.98;214866;1276;139731;-64
2022/05/24 14:29:25;;;;;;;7.40;5.30;;;;;;;18.91;59.05;99030.87;216016;1275;139140;-64
2022/05/24 14:34:31;;;;;;;6.20;5.70;;;;;;;19.16;59.02;99033.30;215863;1274;140909;-63
2022/05/24 14:39:35;;;;;;;8.30;5.40;;;;;;;19.36;58.70;99038.08;214795;1276;141180;-63
2022/05/24 14:44:39;;;;;;;6.60;5.00;;;;;;;19.61;58.64;99035.95;214930;1276;139615;-64
2022/05/24 14:49:43;;;;;;;6.70;4.60;;;;;;;19.85;58.43;99035.55;214447;1274;230180;-63
2022/05/24 14:54:48;;;;;;;9.50;5.50;;;;;;;19.92;58.17;99034.39;214911;1277;139897;-63
2022/05/24 14:59:52;;;;;;;7.50;4.60;;;;;;;19.85;58.12;99034.10;213981;1277;140286;-64
2022/05/24 15:04:56;;;;;;;6.90;5.90;;;;;;;19.72;58.14;99031.81;215249;1274;161466;-62
2022/05/24 15:15:28;;;;;;;6.70;5.50;;;;;;;19.42;58.48;99025.70;213343;1275;139642;-62
2022/05/24 15:20:32;;;;;;;10.50;6.40;;;;;;;19.30;58.78;99022.88;213529;1276;142528;-65
2022/05/24 15:25:46;;;;;;;14.80;10.20;;;;;;;19.23;58.92;99031.02;212962;1274;145183;-66
2022/05/24 15:30:49;;;;;;;10.30;6.20;;;;;;;19.17;59.08;99038.02;212851;1277;140156;-64
2022/05/24 15:35:54;;;;;;;5.30;4.30;;;;;;;19.22;59.33;99038.02;214108;1276;139359;-63
2022/05/24 15:40:57;;;;;;;7.40;6.00;;;;;;;19.23;59.31;99042.38;213249;1277;139800;-64
2022/05/24 15:46:01;;;;;;;8.30;5.10;;;;;;;19.23;59.37;99039.73;213743;1277;139604;-63
2022/05/24 15:51:06;;;;;;;6.20;4.40;;;;;;;19.27;59.42;99044.25;213887;1277;140051;-65
2022/05/24 15:56:10;;;;;;;7.90;5.10;;;;;;;19.33;59.57;99041.44;215726;1277;141469;-62
2022/05/24 16:01:14;;;;;;;6.70;5.40;;;;;;;19.35;59.62;99038.42;213096;1277;140811;-63
2022/05/24 16:11:52;;;;;;;5.80;5.30;;;;;;;19.11;59.80;99042.23;213688;1276;140647;-62
2022/05/24 16:16:59;;;;;;;7.10;5.80;;;;;;;18.94;60.00;99040.48;214288;1277;140784;-62
2022/05/24 16:22:02;;;;;;;;;;;;;;;18.88;60.11;99040.66;215542;1277;142297;-63
2022/05/24 16:27:05;;;;;;;4.90;4.30;;;;;;;18.87;60.44;99044.91;216443;1276;126713;-64
2022/05/24 16:32:09;;;;;;;8.70;6.10;;;;;;;18.85;60.40;99051.82;215702;1276;141345;-65
2022/05/24 16:37:12;;;;;;;5.60;5.10;;;;;;;18.77;60.52;99056.64;215607;1277;140060;-64
2022/05/24 16:42:16;;;;;;;9.70;5.00;;;;;;;18.67;60.60;99055.09;214963;1276;141018;-61
2022/05/24 16:47:18;;;;;;;6.80;4.40;;;;;;;18.62;60.93;99064.87;215714;1276;140390;-63
2022/05/24 16:52:21;;;;;;;9.00;5.60;;;;;;;18.65;60.85;99074.73;213963;1276;139457;-63
2022/05/24 17:03:00;;;;;;;5.50;4.00;;;;;;;18.55;61.26;99072.81;213324;1276;140412;-64
2022/05/24 17:08:08;;;;;;;6.50;4.40;;;;;;;18.45;61.30;99074.63;213256;1276;141354;-62
2022/05/24 17:13:12;;;;;;;5.50;5.00;;;;;;;18.37;61.58;99075.77;213995;1276;140507;-62
2022/05/24 17:18:16;;;;;;;6.10;5.60;;;;;;;18.28;61.77;99079.80;213275;1276;143656;-63
2022/05/24 17:23:20;;;;;;;7.50;5.00;;;;;;;18.18;62.14;99088.35;212688;1277;141618;-63
2022/05/24 17:28:27;;;;;;;9.20;5.10;;;;;;;18.12;62.37;99092.73;213530;1276;140296;-66
2022/05/24 17:33:32;;;;;;;7.40;6.00;;;;;;;18.03;62.53;99095.66;213351;1277;141378;-65
2022/05/24 17:38:36;;;;;;;6.30;5.40;;;;;;;18.00;62.73;99101.25;213594;1275;142772;-66
2022/05/24 17:43:43;;;;;;;5.80;5.10;;;;;;;17.94;63.15;99103.19;214149;1276;139459;-65
2022/05/24 17:48:47;;;;;;;;;;;;;;;17.80;63.46;99105.27;214401;1276;141663;-63
2022/05/24 17:53:50;;;;;;;6.00;5.50;;;;;;;17.69;64.14;99119.21;215355;1274;127805;-63
2022/05/24 17:58:53;;;;;;;6.10;5.10;;;;;;;17.66;64.38;99128.15;215670;1276;141195;-64
2022/05/24 18:03:56;;;;;;;8.80;6.30;;;;;;;17.63;64.74;99144.02;214204;1276;208478;-63
2022/05/24 18:09:01;;;;;;;8.10;6.70;;;;;;;17.49;65.08;99153.79;214817;1276;139759;-64
2022/05/24 18:14:05;;;;;;;9.00;6.60;;;;;;;17.41;65.95;99160.61;214102;1276;141243;-64
2022/05/24 18:19:08;;;;;;;7.50;6.30;;;;;;;17.42;66.43;99167.81;213098;1276;142481;-62
2022/05/24 18:24:33;;;;;;;9.00;7.10;;;;;;;17.35;66.82;99172.40;215676;1276;142819;-64
2022/05/24 18:35:16;;;;;;;7.60;6.80;;;;;;;16.98;68.11;99174.95;215734;1276;140895;-64
2022/05/24 18:40:24;;;;;;;11.40;7.10;;;;;;;16.66;68.91;99174.08;215737;1276;141706;-63
2022/05/24 18:45:28;;;;;;;11.20;7.40;;;;;;;16.50;69.74;99180.23;215632;1276;140563;-63
2022/05/24 18:50:31;;;;;;;10.00;9.10;;;;;;;16.37;70.39;99181.08;214863;1276;140236;-62
2022/05/24 18:55:36;;;;;;;11.10;9.90;;;;;;;16.33;70.95;99183.15;214297;1274;140734;-63
2022/05/24 19:00:41;;;;;;;10.30;7.90;;;;;;;16.33;71.40;99186.98;213403;1275;140303;-64
2022/05/24 19:05:48;;;;;;;9.10;7.30;;;;;;;16.21;71.99;99188.66;213047;1274;140118;-64
2022/05/24 19:10:52;;;;;;;13.70;10.20;;;;;;;16.15;72.58;99189.33;214646;1276;141868;-64
2022/05/24 19:15:55;;;;;;;13.10;8.10;;;;;;;16.22;73.01;99188.33;212892;1276;141547;-64
2022/05/24 19:21:00;;;;;;;11.70;10.10;;;;;;;16.19;73.15;99197.79;213133;1276;140250;-63
2022/05/24 19:26:05;;;;;;;11.90;9.60;;;;;;;16.18;73.48;99199.90;213067;1276;140670;-67
2022/05/24 19:31:08;;;;;;;11.90;9.00;;;;;;;16.15;73.65;99204.71;213122;1276;140952;-64
2022/05/24 19:36:12;;;;;;;13.60;9.80;;;;;;;16.13;73.82;99215.91;214118;1276;140248;-63
2022/05/24 19:46:37;;;;;;;10.40;9.20;;;;;;;16.24;74.46;99224.62;213424;1276;140334;-63
2022/05/24 19:51:46;;;;;;;14.40;9.30;;;;;;;16.38;74.65;99225.82;213632;1276;141166;-63
2022/05/24 19:56:55;;;;;;;12.40;11.10;;;;;;;16.48;74.54;99227.45;213355;1275;140428;-66
2022/05/24 20:01:58;;;;;;;10.80;9.70;;;;;;;16.50;74.51;99229.45;213523;1274;140654;-63
2022/05/24 20:07:02;;;;;;;11.20;10.00;;;;;;;16.52;74.55;99235.39;212889;1276;140053;-62
2022/05/24 20:12:06;;;;;;;11.70;10.20;;;;;;;16.53;74.41;99246.15;214227;1276;140869;-60
2022/05/24 20:17:12;;;;;;;10.00;9.10;;;;;;;16.36;74.24;99245.97;214773;1276;141013;-63
2022/05/24 20:22:15;;;;;;;12.60;10.00;;;;;;;16.35;74.75;99245.23;215744;1274;142798;-62
2022/05/24 20:27:21;;;;;;;11.30;10.20;;;;;;;16.45;74.78;99246.73;215876;1275;141485;-62
2022/05/24 20:32:28;;;;;;;17.10;10.30;;;;;;;16.50;74.62;99251.84;215689;1274;142720;-63
2022/05/24 20:37:32;;;;;;;12.20;11.00;;;;;;;16.53;74.80;99259.23;215835;1276;140685;-62
2022/05/24 20:42:35;;;;;;;12.40;11.00;;;;;;;16.59;74.68;99264.13;215390;1276;162535;-63
2022/05/24 20:47:38;;;;;;;11.60;9.70;;;;;;;16.59;74.46;99268.74;214677;1276;142087;-62
2022/05/24 20:52:42;;;;;;;12.10;10.20;;;;;;;16.58;74.53;99271.67;214186;1277;142783;-63
2022/05/24 20:57:45;;;;;;;15.00;9.90;;;;;;;16.44;74.25;99274.65;213253;1276;142960;-62
2022/05/24 21:02:48;;;;;;;10.40;9.00;;;;;;;16.12;74.40;99269.96;213706;1274;140523;-63
2022/05/24 21:08:12;;;;;;;11.40;9.70;;;;;;;16.01;75.26;99276.29;213716;1274;140951;-63
2022/05/24 21:13:22;;;;;;;10.90;9.90;;;;;;;16.03;75.51;99282.98;212862;1277;141536;-64
2022/05/24 21:18:25;;;;;;;13.60;10.40;;;;;;;16.07;75.49;99282.16;213774;1276;142329;-62
2022/05/24 21:23:29;;;;;;;11.50;9.90;;;;;;;16.02;75.48;99276.91;213200;1276;142904;-63
2022/05/24 21:28:40;;;;;;;11.60;10.20;;;;;;;15.85;75.64;99281.64;213363;1276;140812;-63
2022/05/24 21:33:43;;;;;;;12.50;11.10;;;;;;;15.76;75.82;99286.30;213238;1274;141866;-63
2022/05/24 21:38:45;;;;;;;12.20;11.00;;;;;;;15.78;75.94;99291.03;213591;1275;142904;-61
2022/05/24 21:43:47;;;;;;;10.40;9.40;;;;;;;15.71;75.75;99293.66;214322;1274;140223;-64
2022/05/24 21:48:49;;;;;;;11.70;10.50;;;;;;;15.50;75.79;99293.17;214404;1274;140301;-63
2022/05/24 21:53:52;;;;;;;12.60;11.40;;;;;;;15.25;76.32;99294.91;214920;1274;140071;-63
2022/05/24 21:58:55;;;;;;;12.30;11.10;;;;;;;15.19;76.89;99302.24;213159;1275;140423;-61
2022/05/24 22:03:58;;;;;;;21.40;14.60;;;;;;;15.25;77.45;99308.61;214534;1274;141318;-61
2022/05/24 22:09:01;;;;;;;17.60;13.10;;;;;;;15.33;77.77;99305.81;215260;1276;141923;-63
2022/05/24 22:14:04;;;;;;;22.50;15.10;;;;;;;15.33;77.69;99313.34;214690;1274;141421;-62
2022/05/24 22:19:07;;;;;;;23.50;16.50;;;;;;;15.34;78.06;99321.81;214155;1276;140944;-63
2022/05/24 22:24:10;;;;;;;16.70;12.50;;;;;;;15.33;77.93;99334.16;214899;1276;140783;-62
2022/05/24 22:29:13;;;;;;;21.20;14.60;;;;;;;15.32;78.01;99333.09;214871;1274;141957;-63
2022/05/24 22:34:18;;;;;;;14.30;12.10;;;;;;;15.33;78.25;99342.29;215989;1275;140578;-63
2022/05/24 22:39:20;;;;;;;15.90;13.90;;;;;;;15.27;78.22;99333.47;213106;1274;140316;-65
2022/05/24 22:49:47;;;;;;;16.10;14.20;;;;;;;15.32;78.54;99333.75;213103;1274;160113;-63
2022/05/24 22:54:51;;;;;;;15.00;13.40;;;;;;;15.26;78.60;99324.02;214679;1275;140277;-64
2022/05/24 22:59:54;;;;;;;15.00;13.30;;;;;;;15.22;78.72;99320.65;214805;1276;140777;-63
2022/05/24 23:04:58;;;;;;;17.00;13.10;;;;;;;15.25;78.91;99319.84;213401;1274;140458;-63
2022/05/24 23:10:03;;;;;;;15.30;13.20;;;;;;;15.32;79.03;99317.53;212758;1275;705279;-62
2022/05/24 23:15:06;;;;;;;16.20;10.40;;;;;;;15.39;79.07;99322.71;214428;1276;141385;-62
2022/05/24 23:20:12;;;;;;;11.00;8.80;;;;;;;15.42;79.02;99339.62;214368;1276;143318;-62
2022/05/24 23:25:15;;;;;;;14.90;10.80;;;;;;;15.41;79.00;99338.55;214494;1275;141568;-63
2022/05/24 23:30:18;;;;;;;10.60;9.50;;;;;;;15.42;79.11;99337.04;213945;1276;142948;-63
2022/05/24 23:35:21;;;;;;;9.60;8.70;;;;;;;15.40;79.26;99331.67;213333;1277;140605;-63
2022/05/24 23:40:24;;;;;;;9.20;8.20;;;;;;;15.47;79.53;99326.28;213582;1274;143982;-64
2022/05/24 23:45:27;;;;;;;11.70;6.90;;;;;;;15.58;79.60;99322.48;213222;1274;152991;-63
2022/05/24 23:50:30;;;;;;;8.30;7.50;;;;;;;15.69;79.66;99318.02;213503;1276;141467;-62
2022/05/24 23:55:34;;;;;;;8.20;7.40;;;;;;;15.78;79.60;99326.82;213350;1276;140774;-62
